Time;durP1;ratioP1;P1;durP2;ratioP2;P2;SDS_P1;SDS_P2;PMS_P1;PMS_P2;Temp;Humidity;BMP_temperature;BMP_pressure;BME280_temperature;BME280_humidity;BME280_pressure;Samples;Min_cycle;Max_cycle;Signal;HPM_P1;HPM_P2
2023/09/15 00:00:10;;;;;;;12.80;5.18;;;21.60;91.60;;;;;;5087799;28;20060;-53
2023/09/15 00:02:36;;;;;;;9.30;5.13;;;21.60;91.60;;;;;;5054494;28;20397;-53
2023/09/15 00:05:02;;;;;;;13.80;4.95;;;21.60;91.70;;;;;;5087875;28;20043;-53
2023/09/15 00:07:27;;;;;;;11.70;4.82;;;21.60;91.70;;;;;;5087801;28;20037;-53
2023/09/15 00:09:53;;;;;;;11.02;5.05;;;21.60;91.70;;;;;;5069973;28;20040;-53
2023/09/15 00:12:18;;;;;;;11.43;4.75;;;21.60;91.70;;;;;;5052939;28;20435;-53
2023/09/15 00:14:44;;;;;;;10.52;4.72;;;21.50;92.00;;;;;;5087651;28;20488;-53
2023/09/15 00:17:09;;;;;;;12.32;5.25;;;21.50;91.80;;;;;;5069112;28;20393;-53
2023/09/15 00:19:35;;;;;;;13.60;5.03;;;21.50;91.70;;;;;;5087540;28;20041;-53
2023/09/15 00:22:01;;;;;;;11.40;4.53;;;21.50;91.80;;;;;;5087414;28;20438;-53
2023/09/15 00:24:26;;;;;;;10.07;5.07;;;21.50;91.80;;;;;;5069572;28;20096;-53
2023/09/15 00:26:52;;;;;;;10.35;4.80;;;21.50;91.80;;;;;;5069250;28;20051;-53
2023/09/15 00:29:17;;;;;;;8.02;4.55;;;21.50;91.80;;;;;;5069347;28;20049;-53
2023/09/15 00:31:43;;;;;;;12.60;5.22;;;21.50;91.80;;;;;;5087211;28;20051;-52
2023/09/15 00:34:09;;;;;;;18.45;5.32;;;21.40;91.80;;;;;;5069262;28;20067;-53
2023/09/15 00:36:34;;;;;;;10.75;4.68;;;21.40;91.80;;;;;;5087188;28;20051;-53
2023/09/15 00:39:01;;;;;;;9.80;4.07;;;21.40;91.80;;;;;;5052519;28;20044;-53
2023/09/15 00:41:26;;;;;;;10.65;4.18;;;21.40;91.80;;;;;;5087030;28;20029;-53
2023/09/15 00:43:52;;;;;;;8.55;4.50;;;21.40;91.90;;;;;;5052384;28;20481;-53
2023/09/15 00:46:17;;;;;;;9.93;4.68;;;21.40;91.90;;;;;;5068792;28;20554;-53
2023/09/15 00:48:45;;;;;;;7.40;4.10;;;21.40;91.90;;;;;;5052204;28;20044;-53
2023/09/15 00:51:11;;;;;;;11.50;4.50;;;21.40;91.90;;;;;;5052881;28;20100;-53
2023/09/15 00:53:37;;;;;;;7.80;4.28;;;21.30;91.90;;;;;;5052279;28;20037;-53
2023/09/15 00:56:06;;;;;;;8.68;4.35;;;21.30;92.00;;;;;;5052158;28;20100;-53
2023/09/15 00:58:31;;;;;;;9.50;4.45;;;21.20;91.90;;;;;;5053082;28;20042;-53
2023/09/15 01:00:57;;;;;;;6.40;4.10;;;21.20;92.00;;;;;;5067170;28;20092;-52
2023/09/15 01:03:22;;;;;;;8.68;4.60;;;21.20;92.00;;;;;;5068755;28;20033;-53
2023/09/15 01:05:48;;;;;;;8.43;4.72;;;21.20;92.00;;;;;;5067293;28;20025;-53
2023/09/15 01:08:13;;;;;;;6.18;4.00;;;21.20;92.00;;;;;;5068597;28;20103;-53
2023/09/15 01:10:39;;;;;;;12.15;4.30;;;21.20;92.00;;;;;;5068609;28;20040;-53
2023/09/15 01:13:04;;;;;;;7.53;4.57;;;21.20;92.00;;;;;;5067422;28;20503;-53
2023/09/15 01:15:55;;;;;;;8.00;4.68;;;21.20;92.00;;;;;;5068597;28;20037;-52
2023/09/15 01:18:35;;;;;;;5.97;4.20;;;21.20;92.00;;;;;;5051140;28;20132;-52
2023/09/15 01:21:30;;;;;;;8.10;4.28;;;21.20;92.00;;;;;;5068514;28;20041;-53
2023/09/15 01:24:19;;;;;;;10.43;4.85;;;21.20;92.10;;;;;;5086320;28;20059;-53
2023/09/15 01:27:03;;;;;;;8.73;4.55;;;21.10;92.00;;;;;;5027611;28;20507;-53
2023/09/15 01:29:46;;;;;;;7.60;4.55;;;21.10;92.00;;;;;;5050572;28;20067;-53
2023/09/15 01:32:12;;;;;;;8.95;4.75;;;21.10;92.00;;;;;;5048275;28;20048;-52
2023/09/15 01:34:38;;;;;;;5.72;4.38;;;21.10;92.10;;;;;;5064432;28;20071;-53
2023/09/15 01:37:04;;;;;;;4.82;3.63;;;21.10;92.10;;;;;;5051659;28;20040;-53
2023/09/15 01:39:30;;;;;;;9.93;4.35;;;21.00;92.10;;;;;;5086278;28;20047;-52
2023/09/15 01:42:02;;;;;;;6.28;3.92;;;21.10;92.10;;;;;;5050402;28;20518;-53
2023/09/15 01:44:28;;;;;;;8.15;4.45;;;21.10;92.10;;;;;;5068252;28;20029;-53
2023/09/15 01:46:53;;;;;;;7.93;3.95;;;21.00;92.10;;;;;;5068228;28;20028;-53
2023/09/15 01:49:19;;;;;;;6.72;4.15;;;21.00;92.10;;;;;;5049652;28;20049;-53
2023/09/15 01:51:45;;;;;;;7.47;4.30;;;21.00;92.10;;;;;;5068095;28;20036;-52
2023/09/15 01:54:11;;;;;;;8.10;4.63;;;21.00;92.10;;;;;;5051360;28;20067;-53
2023/09/15 01:56:36;;;;;;;5.95;4.05;;;21.00;92.10;;;;;;5083979;28;20037;-53
2023/09/15 01:59:12;;;;;;;7.32;4.07;;;21.00;92.10;;;;;;5068241;28;20047;-53
2023/09/15 02:01:38;;;;;;;5.40;3.97;;;21.00;92.10;;;;;;5083452;28;20104;-52
2023/09/15 02:04:04;;;;;;;5.95;3.88;;;20.90;92.10;;;;;;5077347;28;20033;-53
2023/09/15 02:06:30;;;;;;;9.85;4.05;;;20.90;92.10;;;;;;5058440;28;20025;-53
2023/09/15 02:08:56;;;;;;;6.50;4.10;;;20.90;92.10;;;;;;5050066;28;20059;-53
2023/09/15 02:11:22;;;;;;;6.60;3.60;;;20.90;92.20;;;;;;5084432;28;20187;-52
2023/09/15 02:13:48;;;;;;;8.40;4.10;;;20.90;92.20;;;;;;5085775;28;20139;-53
2023/09/15 02:16:13;;;;;;;4.03;3.60;;;20.90;92.20;;;;;;5050204;28;20045;-52
2023/09/15 02:18:40;;;;;;;8.20;4.47;;;20.90;92.20;;;;;;5055578;28;20441;-52
2023/09/15 02:21:06;;;;;;;6.63;3.95;;;20.90;92.10;;;;;;5084757;28;20043;-53
2023/09/15 02:23:32;;;;;;;5.10;3.92;;;20.90;92.10;;;;;;5067079;28;20040;-53
2023/09/15 02:26:01;;;;;;;7.00;3.70;;;20.90;92.10;;;;;;5051264;28;20036;-52
2023/09/15 02:28:27;;;;;;;7.25;4.32;;;20.90;92.20;;;;;;5051213;28;20094;-52
2023/09/15 02:30:52;;;;;;;6.88;3.90;;;20.90;92.20;;;;;;5065531;28;20032;-53
2023/09/15 02:33:19;;;;;;;5.80;3.83;;;20.80;92.10;;;;;;5081246;28;20051;-53
2023/09/15 02:35:45;;;;;;;7.32;3.88;;;20.80;92.10;;;;;;5062736;28;20035;-53
2023/09/15 02:38:11;;;;;;;6.70;4.30;;;20.80;92.10;;;;;;5062367;28;20073;-52
2023/09/15 02:40:36;;;;;;;6.00;3.92;;;20.80;92.10;;;;;;5066921;28;20128;-53
2023/09/15 02:43:02;;;;;;;6.25;4.05;;;20.80;92.10;;;;;;5051332;28;20040;-52
2023/09/15 02:45:28;;;;;;;5.53;4.00;;;20.80;92.10;;;;;;5056191;28;20421;-53
2023/09/15 02:47:53;;;;;;;4.13;3.67;;;20.80;92.10;;;;;;5084443;28;20040;-53
2023/09/15 02:50:19;;;;;;;4.95;4.10;;;20.80;92.10;;;;;;5084371;28;20040;-53
2023/09/15 02:52:44;;;;;;;4.88;4.05;;;20.80;92.10;;;;;;5087789;28;20036;-53
2023/09/15 02:55:10;;;;;;;4.80;3.85;;;20.80;92.00;;;;;;5089031;28;20037;-53
2023/09/15 02:57:35;;;;;;;6.05;4.03;;;20.80;92.10;;;;;;5071043;28;20040;-53
2023/09/15 03:00:01;;;;;;;4.63;3.95;;;20.80;92.10;;;;;;5085637;28;20050;-53
2023/09/15 03:02:26;;;;;;;6.68;3.72;;;20.70;92.10;;;;;;5051564;28;20037;-52
2023/09/15 03:04:52;;;;;;;5.55;3.83;;;20.80;92.10;;;;;;5068656;28;20109;-53
2023/09/15 03:07:17;;;;;;;6.38;4.35;;;20.80;92.10;;;;;;5068344;28;20033;-52
2023/09/15 03:09:43;;;;;;;6.13;3.83;;;20.70;92.10;;;;;;5068859;28;20083;-53
2023/09/15 03:12:09;;;;;;;5.07;4.15;;;20.70;92.00;;;;;;5068489;28;20045;-53
2023/09/15 03:14:34;;;;;;;7.38;4.38;;;20.70;92.00;;;;;;5050797;28;20037;-53
2023/09/15 03:17:00;;;;;;;7.40;4.50;;;20.80;92.10;;;;;;5061861;28;20072;-52
2023/09/15 03:19:26;;;;;;;6.45;4.40;;;20.80;92.10;;;;;;5070595;28;20143;-53
2023/09/15 03:21:51;;;;;;;7.45;4.53;;;20.70;92.10;;;;;;5054239;28;20037;-52
2023/09/15 03:24:18;;;;;;;4.78;4.03;;;20.70;92.10;;;;;;5088585;28;20033;-53
2023/09/15 03:26:43;;;;;;;6.20;4.70;;;20.70;92.10;;;;;;5069413;28;20059;-52
2023/09/15 03:29:09;;;;;;;6.70;5.30;;;20.70;92.10;;;;;;5068542;28;20041;-52
2023/09/15 03:31:34;;;;;;;6.57;5.07;;;20.70;92.10;;;;;;5088528;28;20032;-52
2023/09/15 03:34:00;;;;;;;7.85;4.93;;;20.70;92.10;;;;;;5052893;28;20052;-50
2023/09/15 03:36:26;;;;;;;7.18;4.97;;;20.70;92.10;;;;;;5067071;28;20029;-53
2023/09/15 03:38:52;;;;;;;5.55;4.57;;;20.70;92.10;;;;;;5070266;28;20036;-53
2023/09/15 03:41:17;;;;;;;8.05;5.47;;;20.70;92.10;;;;;;5070323;28;20071;-52
2023/09/15 03:43:43;;;;;;;7.80;5.65;;;20.70;92.10;;;;;;5065651;28;20037;-53
2023/09/15 03:46:08;;;;;;;6.78;4.72;;;20.70;92.10;;;;;;5050066;28;20037;-53
2023/09/15 03:48:34;;;;;;;5.20;4.47;;;20.70;92.10;;;;;;5050005;28;20041;-53
2023/09/15 03:50:59;;;;;;;4.82;4.30;;;20.70;92.00;;;;;;5080187;28;20094;-52
2023/09/15 03:53:25;;;;;;;5.05;4.55;;;20.70;92.00;;;;;;5052504;28;20503;-52
2023/09/15 03:55:51;;;;;;;6.78;4.95;;;20.70;92.10;;;;;;5087723;28;20040;-53
2023/09/15 03:58:17;;;;;;;7.68;4.68;;;20.70;92.10;;;;;;5053003;28;20384;-51
2023/09/15 04:00:43;;;;;;;7.70;5.85;;;20.70;92.10;;;;;;5086718;28;20047;-52
2023/09/15 04:03:08;;;;;;;5.88;5.28;;;20.70;92.10;;;;;;5069293;28;20063;-53
2023/09/15 04:05:34;;;;;;;7.35;5.30;;;20.70;92.10;;;;;;5070444;28;20028;-52
2023/09/15 04:08:00;;;;;;;5.75;5.15;;;20.70;92.10;;;;;;5053138;28;20111;-52
2023/09/15 04:10:25;;;;;;;7.97;5.13;;;20.70;92.10;;;;;;5069843;28;20044;-53
2023/09/15 04:12:51;;;;;;;6.53;5.20;;;20.70;92.10;;;;;;5069478;28;20522;-52
2023/09/15 04:15:16;;;;;;;5.43;4.93;;;20.70;92.10;;;;;;5069517;28;20435;-53
2023/09/15 04:17:42;;;;;;;8.68;5.32;;;20.70;92.10;;;;;;5087534;28;20484;-52
2023/09/15 04:20:11;;;;;;;7.20;5.00;;;20.60;92.10;;;;;;5069622;28;20049;-52
2023/09/15 04:22:37;;;;;;;16.00;5.78;;;20.70;92.10;;;;;;5053623;28;20159;-53
2023/09/15 04:25:04;;;;;;;12.15;5.28;;;20.70;92.10;;;;;;5069520;28;20036;-53
2023/09/15 04:27:32;;;;;;;11.30;4.75;;;20.70;92.10;;;;;;5069159;28;20102;-53
2023/09/15 04:29:57;;;;;;;8.95;5.20;;;20.70;92.10;;;;;;5067963;28;20066;-53
2023/09/15 04:32:23;;;;;;;13.25;5.32;;;20.70;92.10;;;;;;5054590;28;20041;-53
2023/09/15 04:34:53;;;;;;;11.93;6.10;;;20.70;92.10;;;;;;5067043;28;20048;-52
2023/09/15 04:37:19;;;;;;;16.60;6.15;;;20.70;92.10;;;;;;5032626;28;20061;-52
2023/09/15 04:39:44;;;;;;;34.13;8.57;;;20.70;92.10;;;;;;5032099;28;20052;-53
2023/09/15 04:42:10;;;;;;;23.38;7.50;;;20.70;92.10;;;;;;5065813;28;20037;-52
2023/09/15 04:44:36;;;;;;;45.92;10.55;;;20.70;92.10;;;;;;5032724;28;20104;-52
2023/09/15 04:47:01;;;;;;;38.42;8.90;;;20.60;92.10;;;;;;5048963;28;20033;-52
2023/09/15 04:49:27;;;;;;;27.90;8.63;;;20.60;92.10;;;;;;5032412;28;20075;-52
2023/09/15 04:51:54;;;;;;;35.15;7.63;;;20.60;92.10;;;;;;5048802;28;20037;-52
2023/09/15 04:54:19;;;;;;;31.08;7.25;;;20.60;92.10;;;;;;5032444;28;20086;-53
2023/09/15 04:56:45;;;;;;;38.92;8.38;;;20.60;92.10;;;;;;5049036;28;20044;-53
2023/09/15 04:59:15;;;;;;;36.78;8.18;;;20.60;92.10;;;;;;5066662;28;20088;-52
2023/09/15 05:01:45;;;;;;;34.42;8.52;;;20.60;92.00;;;;;;5049424;28;20089;-52
2023/09/15 05:04:10;;;;;;;31.60;8.38;;;20.60;92.10;;;;;;5031507;28;20029;-53
2023/09/15 05:06:36;;;;;;;27.40;8.25;;;20.60;92.10;;;;;;5066635;28;20404;-53
2023/09/15 05:09:06;;;;;;;43.63;8.70;;;20.60;92.10;;;;;;5066429;28;20063;-53
2023/09/15 05:11:31;;;;;;;40.25;8.55;;;20.60;92.10;;;;;;5049216;28;20063;-53
2023/09/15 05:13:57;;;;;;;44.15;8.57;;;20.60;92.10;;;;;;5066373;28;20033;-53
2023/09/15 05:16:23;;;;;;;26.95;8.18;;;20.60;92.10;;;;;;5066248;28;20073;-52
2023/09/15 05:18:49;;;;;;;34.85;7.75;;;20.60;92.10;;;;;;5048425;28;20029;-52
2023/09/15 05:21:14;;;;;;;34.28;8.35;;;20.60;92.10;;;;;;5048286;28;20088;-53
2023/09/15 05:23:40;;;;;;;36.83;8.38;;;20.60;92.10;;;;;;5047767;28;20092;-52
2023/09/15 05:26:07;;;;;;;24.08;8.05;;;20.60;92.00;;;;;;5056935;28;20032;-53
2023/09/15 05:28:32;;;;;;;31.92;8.43;;;20.60;92.30;;;;;;5066810;28;20119;-52
2023/09/15 05:31:01;;;;;;;26.48;8.05;;;20.60;92.00;;;;;;5066821;28;20055;-53
2023/09/15 05:33:26;;;;;;;29.95;7.75;;;20.60;92.00;;;;;;5085880;28;20040;-52
2023/09/15 05:35:56;;;;;;;26.25;7.90;;;20.60;92.30;;;;;;5050209;28;20036;-53
2023/09/15 05:38:22;;;;;;;20.98;8.93;;;20.60;92.10;;;;;;5034944;28;20090;-52
2023/09/15 05:40:48;;;;;;;33.05;8.13;;;20.60;92.10;;;;;;5086101;28;20029;-52
2023/09/15 05:43:14;;;;;;;25.92;7.85;;;20.60;92.10;;;;;;5051617;28;20035;-53
2023/09/15 05:45:39;;;;;;;37.22;7.82;;;20.60;92.20;;;;;;5067843;28;20100;-52
2023/09/15 05:48:05;;;;;;;36.63;9.30;;;20.60;92.20;;;;;;5067911;28;20048;-53
2023/09/15 05:50:31;;;;;;;25.17;8.23;;;20.60;92.20;;;;;;5086916;28;20032;-52
2023/09/15 05:52:56;;;;;;;23.02;7.97;;;20.60;92.20;;;;;;5068633;28;20036;-53
2023/09/15 05:55:22;;;;;;;14.90;7.75;;;20.60;92.20;;;;;;5068953;28;20032;-51
2023/09/15 05:57:48;;;;;;;21.58;7.57;;;20.60;92.30;;;;;;5087753;28;20067;-53
2023/09/15 06:00:13;;;;;;;31.52;8.40;;;20.60;92.20;;;;;;5052309;28;20037;-52
2023/09/15 06:02:39;;;;;;;19.67;7.55;;;20.60;92.20;;;;;;5087231;28;20078;-53
2023/09/15 06:05:06;;;;;;;16.50;7.63;;;20.60;92.40;;;;;;5068139;28;20029;-53
2023/09/15 06:07:32;;;;;;;16.63;7.18;;;20.60;92.20;;;;;;5046874;28;20060;-53
2023/09/15 06:09:57;;;;;;;18.20;7.40;;;20.60;92.30;;;;;;5047357;28;20037;-53
2023/09/15 06:12:23;;;;;;;18.60;7.18;;;20.50;92.40;;;;;;5082100;28;20041;-53
2023/09/15 06:14:49;;;;;;;16.67;7.68;;;20.50;92.50;;;;;;5068992;28;20032;-52
2023/09/15 06:17:14;;;;;;;14.85;7.18;;;20.50;92.50;;;;;;5072969;28;20036;-54
2023/09/15 06:19:40;;;;;;;16.48;7.30;;;20.40;92.50;;;;;;5073108;28;20104;-53
2023/09/15 06:22:05;;;;;;;16.42;7.15;;;20.40;92.60;;;;;;5055393;28;20086;-53
2023/09/15 06:24:31;;;;;;;18.63;7.90;;;20.40;92.70;;;;;;5090273;28;20028;-53
2023/09/15 06:26:56;;;;;;;18.60;7.18;;;20.40;92.80;;;;;;5091014;28;20083;-53
2023/09/15 06:29:22;;;;;;;18.20;7.25;;;20.40;92.80;;;;;;5088855;28;20044;-53
2023/09/15 06:31:48;;;;;;;16.77;7.50;;;20.30;92.80;;;;;;5055693;28;20040;-52
2023/09/15 06:34:13;;;;;;;18.48;6.93;;;20.30;92.80;;;;;;5055972;28;20463;-53
2023/09/15 06:36:39;;;;;;;15.70;6.78;;;20.30;92.80;;;;;;5066752;28;20047;-53
2023/09/15 06:39:06;;;;;;;18.35;7.13;;;20.30;92.80;;;;;;5068687;28;20032;-53
2023/09/15 06:41:32;;;;;;;16.88;6.82;;;20.40;92.90;;;;;;5067264;28;20465;-53
2023/09/15 06:43:58;;;;;;;20.60;7.05;;;20.30;92.90;;;;;;5088343;28;20127;-53
2023/09/15 06:46:24;;;;;;;14.32;7.18;;;20.30;92.80;;;;;;5054112;28;20066;-53
2023/09/15 06:48:50;;;;;;;16.05;7.28;;;20.30;92.90;;;;;;5088206;28;20056;-53
2023/09/15 06:51:15;;;;;;;17.95;6.85;;;20.40;92.90;;;;;;5046094;28;20136;-53
2023/09/15 06:53:41;;;;;;;15.73;7.47;;;20.40;92.90;;;;;;5069483;28;20044;-53
2023/09/15 06:56:06;;;;;;;13.88;6.53;;;20.40;92.90;;;;;;5052772;28;20037;-53
2023/09/15 06:58:32;;;;;;;21.08;7.80;;;20.40;93.20;;;;;;5070663;28;20033;-53
2023/09/15 07:00:58;;;;;;;33.45;8.32;;;20.40;92.90;;;;;;5068196;28;20488;-53
2023/09/15 07:03:24;;;;;;;25.70;8.18;;;20.40;93.00;;;;;;5054038;28;20041;-53
2023/09/15 07:05:50;;;;;;;25.60;7.93;;;20.40;92.90;;;;;;5065893;28;20048;-53
2023/09/15 07:08:16;;;;;;;35.75;8.35;;;20.40;92.90;;;;;;5070244;28;20055;-53
2023/09/15 07:10:41;;;;;;;21.08;8.13;;;20.40;92.90;;;;;;5067128;28;20029;-53
2023/09/15 07:13:07;;;;;;;28.45;8.63;;;20.40;93.00;;;;;;5087905;28;20032;-53
2023/09/15 07:15:35;;;;;;;23.15;7.78;;;20.40;92.90;;;;;;5069245;28;20052;-53
2023/09/15 07:18:04;;;;;;;35.90;10.00;;;20.50;92.90;;;;;;5086273;28;20036;-53
2023/09/15 07:20:30;;;;;;;51.88;10.85;;;20.50;92.90;;;;;;5065173;28;20044;-53
2023/09/15 07:22:56;;;;;;;44.08;10.57;;;20.50;93.00;;;;;;5052574;28;20174;-53
2023/09/15 07:25:22;;;;;;;33.88;9.75;;;20.50;93.00;;;;;;5064787;28;20088;-53
2023/09/15 07:27:48;;;;;;;41.40;10.93;;;20.50;93.00;;;;;;5066482;28;20048;-53
2023/09/15 07:30:15;;;;;;;47.85;10.60;;;20.50;93.00;;;;;;5085342;28;20496;-53
2023/09/15 07:32:41;;;;;;;37.75;10.02;;;20.50;93.10;;;;;;5066663;28;20350;-53
2023/09/15 07:35:09;;;;;;;41.72;10.80;;;20.50;93.00;;;;;;5087727;28;20062;-53
2023/09/15 07:37:35;;;;;;;36.42;9.68;;;20.50;93.00;;;;;;5068197;28;20044;-53
2023/09/15 07:40:01;;;;;;;32.55;9.73;;;20.50;93.00;;;;;;5084526;28;20120;-53
2023/09/15 07:42:26;;;;;;;49.53;9.80;;;20.60;93.00;;;;;;5052066;28;20036;-53
2023/09/15 07:44:52;;;;;;;53.13;10.40;;;20.60;93.00;;;;;;5052124;28;20046;-53
2023/09/15 07:47:17;;;;;;;48.15;10.70;;;20.50;93.00;;;;;;5067077;28;20032;-52
2023/09/15 07:49:43;;;;;;;74.85;13.60;;;20.60;93.00;;;;;;5049291;28;20124;-52
2023/09/15 07:52:08;;;;;;;243.85;28.83;;;20.60;93.00;;;;;;5080352;28;20113;-52
2023/09/15 07:54:35;;;;;;;138.70;20.55;;;20.60;93.00;;;;;;5044491;28;20040;-52
2023/09/15 07:57:00;;;;;;;88.70;16.35;;;20.60;93.10;;;;;;5080559;28;20063;-52
2023/09/15 07:59:26;;;;;;;82.72;13.13;;;20.60;93.20;;;;;;5059759;28;20070;-51
2023/09/15 08:01:51;;;;;;;65.13;12.98;;;20.70;93.20;;;;;;5067885;28;20079;-52
2023/09/15 08:04:17;;;;;;;76.47;12.55;;;20.70;93.10;;;;;;5065685;28;20063;-52
2023/09/15 08:06:43;;;;;;;65.25;13.27;;;20.70;93.00;;;;;;5072984;28;20035;-52
2023/09/15 08:09:08;;;;;;;82.43;14.55;;;20.70;93.00;;;;;;5067924;28;20051;-56
2023/09/15 08:11:37;;;;;;;87.75;15.15;;;20.80;93.00;;;;;;5068436;28;20054;-56
2023/09/15 08:14:03;;;;;;;76.13;14.30;;;20.80;93.00;;;;;;5085264;28;20051;-56
2023/09/15 08:16:28;;;;;;;93.63;16.50;;;20.90;93.10;;;;;;5084824;28;20119;-56
2023/09/15 08:18:54;;;;;;;72.00;15.18;;;20.90;92.90;;;;;;5074307;28;20040;-56
2023/09/15 08:21:19;;;;;;;82.93;16.17;;;21.00;92.90;;;;;;5085530;28;20033;-56
2023/09/15 08:23:45;;;;;;;88.70;16.45;;;21.00;93.00;;;;;;5071468;28;20045;-56
2023/09/15 08:26:10;;;;;;;79.22;15.88;;;21.00;93.40;;;;;;5068851;28;20056;-56
2023/09/15 08:28:36;;;;;;;108.85;19.48;;;21.10;93.00;;;;;;5052217;28;20045;-56
2023/09/15 08:31:01;;;;;;;85.45;15.45;;;21.10;93.00;;;;;;5086681;28;20059;-56
2023/09/15 08:33:27;;;;;;;107.43;18.05;;;21.10;93.00;;;;;;5053147;28;20045;-57
2023/09/15 08:35:53;;;;;;;86.93;16.33;;;21.10;93.10;;;;;;5081911;28;20071;-56
2023/09/15 08:38:18;;;;;;;132.77;19.85;;;21.20;93.00;;;;;;5062266;28;20049;-56
2023/09/15 08:40:51;;;;;;;124.90;21.45;;;21.20;93.00;;;;;;5050574;28;20041;-56
2023/09/15 08:43:17;;;;;;;162.77;23.58;;;21.20;93.00;;;;;;5061125;28;20040;-56
2023/09/15 08:45:44;;;;;;;166.68;26.13;;;21.30;93.00;;;;;;5035722;28;20067;-57
2023/09/15 08:48:10;;;;;;;170.43;26.30;;;21.30;93.10;;;;;;5074050;28;20037;-56
2023/09/15 08:50:36;;;;;;;143.95;22.50;;;21.30;93.10;;;;;;5049978;28;20071;-56
2023/09/15 08:53:02;;;;;;;165.30;25.35;;;21.30;93.10;;;;;;5049950;28;20037;-56
2023/09/15 08:55:28;;;;;;;117.32;21.35;;;21.40;93.20;;;;;;5066961;28;20535;-56
2023/09/15 08:57:55;;;;;;;157.98;24.90;;;21.40;93.10;;;;;;5067013;28;20044;-55
2023/09/15 09:00:20;;;;;;;165.70;27.67;;;21.50;93.30;;;;;;5055286;28;20046;-56
2023/09/15 09:02:46;;;;;;;138.30;24.10;;;21.50;93.40;;;;;;5056303;28;20078;-56
2023/09/15 09:05:11;;;;;;;121.50;22.10;;;21.50;93.40;;;;;;5068540;28;20154;-57
2023/09/15 09:07:37;;;;;;;156.25;26.85;;;21.50;93.30;;;;;;5051296;28;20070;-56
2023/09/15 09:10:03;;;;;;;198.63;28.40;;;21.60;93.30;;;;;;5075887;28;20034;-56
2023/09/15 09:12:29;;;;;;;153.40;23.23;;;21.60;93.40;;;;;;5074194;28;20055;-55
2023/09/15 09:14:56;;;;;;;167.10;27.55;;;21.60;93.20;;;;;;5057180;28;20051;-56
2023/09/15 09:17:22;;;;;;;148.65;26.60;;;21.70;93.10;;;;;;5066686;28;20424;-56
2023/09/15 09:19:49;;;;;;;143.50;24.00;;;21.70;93.10;;;;;;5063736;28;20520;-56
2023/09/15 09:22:18;;;;;;;156.90;25.23;;;21.70;93.10;;;;;;5079779;28;20049;-56
2023/09/15 09:24:45;;;;;;;117.65;22.50;;;21.70;93.10;;;;;;5047964;28;20029;-56
2023/09/15 09:27:11;;;;;;;142.93;23.63;;;21.70;93.10;;;;;;5082650;28;20035;-56
2023/09/15 09:29:37;;;;;;;102.25;22.10;;;21.80;93.10;;;;;;5085839;28;20303;-56
2023/09/15 09:32:04;;;;;;;140.30;22.77;;;21.80;93.10;;;;;;5068002;28;20104;-57
2023/09/15 09:34:29;;;;;;;123.32;21.63;;;21.80;93.00;;;;;;5077248;28;20059;-56
2023/09/15 09:36:55;;;;;;;110.82;22.70;;;21.80;92.90;;;;;;5069663;28;20048;-56
2023/09/15 09:39:21;;;;;;;142.85;23.33;;;21.80;92.90;;;;;;5063370;28;20033;-56
2023/09/15 09:41:46;;;;;;;137.32;23.40;;;21.80;92.90;;;;;;5083222;28;20058;-56
2023/09/15 09:44:12;;;;;;;120.85;22.27;;;21.80;92.90;;;;;;5047408;28;20123;-56
2023/09/15 09:46:39;;;;;;;129.02;20.30;;;21.90;92.90;;;;;;5064801;28;20044;-56
2023/09/15 09:49:05;;;;;;;115.60;21.58;;;21.90;92.80;;;;;;5083379;28;20466;-56
2023/09/15 09:51:31;;;;;;;92.97;20.55;;;22.00;92.90;;;;;;5069837;28;20040;-56
2023/09/15 09:53:56;;;;;;;103.68;19.55;;;22.00;92.80;;;;;;5069865;28;20084;-56
2023/09/15 09:56:22;;;;;;;103.38;19.33;;;22.10;92.70;;;;;;5055490;28;20039;-56
2023/09/15 09:58:48;;;;;;;93.53;18.67;;;22.10;92.60;;;;;;5069478;28;20037;-56
2023/09/15 10:01:14;;;;;;;94.72;18.92;;;22.10;92.50;;;;;;5067625;28;20036;-57
2023/09/15 10:03:40;;;;;;;103.72;18.15;;;22.10;92.50;;;;;;5063136;28;20028;-56
2023/09/15 10:06:07;;;;;;;79.30;17.42;;;22.20;92.40;;;;;;5064667;28;20036;-56
2023/09/15 10:08:32;;;;;;;87.47;16.80;;;22.20;92.40;;;;;;5080762;28;20098;-56
2023/09/15 10:10:58;;;;;;;97.38;16.10;;;22.20;92.40;;;;;;5085586;28;20073;-56
2023/09/15 10:13:24;;;;;;;94.15;17.67;;;22.20;92.40;;;;;;5048876;28;20064;-56
2023/09/15 10:15:50;;;;;;;69.15;15.30;;;22.20;92.40;;;;;;5071468;28;20040;-56
2023/09/15 10:18:16;;;;;;;114.68;18.77;;;22.30;92.40;;;;;;5056616;28;20106;-56
2023/09/15 10:20:43;;;;;;;93.72;16.13;;;22.30;92.30;;;;;;5076271;28;20040;-52
2023/09/15 10:23:10;;;;;;;103.63;17.23;;;22.40;92.40;;;;;;5055650;28;20025;-52
2023/09/15 10:25:54;;;;;;;69.78;17.45;;;22.30;92.40;;;;;;5073133;28;20041;-53
2023/09/15 10:28:21;;;;;;;95.72;16.83;;;22.40;92.50;;;;;;5068428;28;20115;-52
2023/09/15 10:30:46;;;;;;;71.47;16.58;;;22.40;92.40;;;;;;5088637;28;20040;-52
2023/09/15 10:33:12;;;;;;;70.80;15.98;;;22.40;92.50;;;;;;5064653;28;20033;-52
2023/09/15 10:35:39;;;;;;;84.28;16.88;;;22.40;92.40;;;;;;5051869;28;20035;-52
2023/09/15 10:38:04;;;;;;;74.10;16.92;;;22.50;92.50;;;;;;5050196;28;20104;-52
2023/09/15 10:40:46;;;;;;;90.85;16.83;;;22.50;92.30;;;;;;5048407;28;20479;-52
2023/09/15 10:43:11;;;;;;;96.88;18.42;;;22.50;92.30;;;;;;5083232;28;20119;-53
2023/09/15 10:45:37;;;;;;;91.07;16.92;;;22.60;92.30;;;;;;5050282;28;20081;-52
2023/09/15 10:48:04;;;;;;;90.18;17.05;;;22.60;92.30;;;;;;5065507;28;20040;-52
2023/09/15 10:50:34;;;;;;;77.13;17.15;;;22.60;92.20;;;;;;5084029;28;20101;-53
2023/09/15 10:53:10;;;;;;;114.13;19.00;;;22.70;92.20;;;;;;5071066;28;20048;-52
2023/09/15 10:55:36;;;;;;;99.70;17.90;;;22.70;92.10;;;;;;5091538;28;20060;-52
2023/09/15 10:58:03;;;;;;;125.25;19.02;;;22.80;92.00;;;;;;5064536;28;20060;-52
2023/09/15 11:00:30;;;;;;;96.47;18.27;;;22.80;92.00;;;;;;5072928;28;20040;-53
2023/09/15 11:02:55;;;;;;;101.70;18.90;;;22.80;92.00;;;;;;5049615;28;20061;-52
2023/09/15 11:05:21;;;;;;;69.80;15.57;;;22.80;92.20;;;;;;5066733;28;20107;-52
2023/09/15 11:07:46;;;;;;;92.68;17.25;;;22.80;91.70;;;;;;5069832;28;20028;-52
2023/09/15 11:10:12;;;;;;;80.53;16.05;;;22.90;91.60;;;;;;5067908;28;20050;-52
2023/09/15 11:12:37;;;;;;;96.97;17.67;;;22.90;91.50;;;;;;5066891;28;20064;-52
2023/09/15 11:15:04;;;;;;;87.13;17.30;;;23.00;91.50;;;;;;5069173;28;20037;-52
2023/09/15 11:17:30;;;;;;;70.40;16.02;;;23.00;91.50;;;;;;5087187;28;20055;-52
2023/09/15 11:19:57;;;;;;;70.85;15.15;;;23.00;91.40;;;;;;5070028;28;20067;-52
2023/09/15 11:22:23;;;;;;;80.22;16.00;;;23.00;91.40;;;;;;5068659;28;20500;-52
2023/09/15 11:24:51;;;;;;;78.50;16.05;;;23.00;91.40;;;;;;5069297;28;20044;-52
2023/09/15 11:27:17;;;;;;;96.20;15.48;;;23.10;91.40;;;;;;5079781;28;20189;-52
2023/09/15 11:29:42;;;;;;;82.60;16.30;;;23.10;91.30;;;;;;5063405;28;20041;-52
2023/09/15 11:32:08;;;;;;;113.82;19.23;;;23.20;91.30;;;;;;5082705;28;20051;-52
2023/09/15 11:34:33;;;;;;;110.65;17.48;;;23.20;91.10;;;;;;5083667;28;20048;-52
2023/09/15 11:37:00;;;;;;;95.15;17.15;;;23.20;91.00;;;;;;5047151;28;20051;-52
2023/09/15 11:39:25;;;;;;;88.13;16.42;;;23.30;91.00;;;;;;5061783;28;20032;-52
2023/09/15 11:41:54;;;;;;;101.15;15.85;;;23.30;90.80;;;;;;5052202;28;20061;-52
2023/09/15 11:44:26;;;;;;;81.97;16.35;;;23.30;90.80;;;;;;5073843;28;20504;-52
2023/09/15 11:46:55;;;;;;;71.50;15.93;;;23.30;90.70;;;;;;5066069;28;20086;-52
2023/09/15 11:49:21;;;;;;;80.85;16.50;;;23.40;90.60;;;;;;5081623;28;20492;-52
2023/09/15 11:51:47;;;;;;;78.90;14.90;;;23.40;90.60;;;;;;5046743;28;20037;-52
2023/09/15 11:54:14;;;;;;;74.70;15.02;;;23.40;90.50;;;;;;5062060;28;20056;-52
2023/09/15 11:56:40;;;;;;;77.97;14.20;;;23.50;90.50;;;;;;5067033;28;20041;-52
2023/09/15 11:59:06;;;;;;;74.72;14.20;;;23.50;90.40;;;;;;5068965;28;20072;-52
2023/09/15 12:01:31;;;;;;;52.22;12.90;;;23.50;90.40;;;;;;5066805;28;20032;-53
2023/09/15 12:03:57;;;;;;;72.03;15.52;;;23.50;90.40;;;;;;5056114;28;20060;-52
2023/09/15 12:06:22;;;;;;;77.45;13.93;;;23.60;90.40;;;;;;5050643;28;20033;-53
2023/09/15 12:08:49;;;;;;;70.75;13.88;;;23.60;90.30;;;;;;5067446;28;20032;-52
2023/09/15 12:11:15;;;;;;;76.30;15.15;;;23.60;90.30;;;;;;5069937;28;20040;-52
2023/09/15 12:13:41;;;;;;;68.43;14.02;;;23.60;90.30;;;;;;5060605;28;20043;-52
2023/09/15 12:16:06;;;;;;;58.65;13.57;;;23.70;90.10;;;;;;5061229;28;20036;-52
2023/09/15 12:18:38;;;;;;;54.53;14.07;;;23.80;90.00;;;;;;5046288;28;20044;-52
2023/09/15 12:21:11;;;;;;;61.28;13.05;;;23.80;89.80;;;;;;5082477;28;20028;-52
2023/09/15 12:23:37;;;;;;;66.93;13.32;;;23.80;89.70;;;;;;5048158;28;20044;-52
2023/09/15 12:26:03;;;;;;;66.43;12.63;;;23.80;89.70;;;;;;5071594;28;20036;-52
2023/09/15 12:28:29;;;;;;;61.30;13.00;;;23.90;89.60;;;;;;5080484;28;20059;-52